createdAt,value
2023-04-17T00:00:55.735Z,100.00
2023-04-17T00:03:58.798Z,100.00
2023-04-17T00:07:03.579Z,100.00
2023-04-17T00:10:06.695Z,100.00
2023-04-17T00:13:08.282Z,100.00
2023-04-17T00:16:13.874Z,100.00
2023-04-17T00:19:17.186Z,100.00
2023-04-17T00:22:18.824Z,100.00
2023-04-17T00:25:20.760Z,100.00
2023-04-17T00:28:22.633Z,100.00
2023-04-17T00:31:24.452Z,100.00
2023-04-17T00:34:28.019Z,100.00
2023-04-17T00:37:29.679Z,100.00
2023-04-17T00:40:31.387Z,100.00
2023-04-17T00:43:33.083Z,100.00
2023-04-17T00:46:34.651Z,100.00
2023-04-17T00:49:38.766Z,100.00
2023-04-17T00:52:40.560Z,100.00
2023-04-17T00:55:43.090Z,100.00
2023-04-17T00:58:45.046Z,100.00
2023-04-17T01:01:47.128Z,100.00
2023-04-17T01:04:50.227Z,100.00
2023-04-17T01:07:54.011Z,100.00
2023-04-17T01:10:55.621Z,100.00
2023-04-17T01:13:57.312Z,100.00
2023-04-17T01:16:59.597Z,100.00
2023-04-17T01:20:06.514Z,100.00
2023-04-17T01:23:08.312Z,100.00
2023-04-17T01:26:12.105Z,100.00
2023-04-17T01:29:13.875Z,100.00
2023-04-17T01:32:16.658Z,100.00
2023-04-17T01:35:18.304Z,100.00
2023-04-17T01:38:19.865Z,100.00
2023-04-17T01:41:23.027Z,100.00
2023-04-17T01:44:24.678Z,100.00
2023-04-17T01:47:26.279Z,100.00
2023-04-17T01:50:27.963Z,100.00
2023-04-17T01:53:31.107Z,100.00
2023-04-17T01:56:34.716Z,100.00
2023-04-17T01:59:36.536Z,100.00
2023-04-17T02:02:38.308Z,100.00
2023-04-17T02:05:40.095Z,100.00
2023-04-17T02:08:41.886Z,100.00
2023-04-17T02:11:45.607Z,100.00
2023-04-17T02:14:47.160Z,100.00
2023-04-17T02:17:48.947Z,100.00
2023-04-17T02:20:50.533Z,100.00
2023-04-17T02:23:52.142Z,100.00
2023-04-17T02:26:56.470Z,100.00
2023-04-17T02:29:58.067Z,100.00
2023-04-17T02:33:00.236Z,100.00
2023-04-17T02:36:02.216Z,100.00
2023-04-17T02:39:12.123Z,100.00
2023-04-17T02:42:16.513Z,100.00
2023-04-17T02:45:18.140Z,100.00
2023-04-17T02:48:19.762Z,100.00
2023-04-17T02:51:21.433Z,100.00
2023-04-17T02:54:23.441Z,100.00
2023-04-17T02:57:26.550Z,100.00
2023-04-17T03:00:28.870Z,100.00
2023-04-17T03:03:35.618Z,100.00
2023-04-17T03:06:40.757Z,100.00
2023-04-17T03:09:42.801Z,100.00
2023-04-17T03:12:46.120Z,100.00
2023-04-17T03:15:48.167Z,100.00
2023-04-17T03:18:49.774Z,100.00
2023-04-17T03:21:51.633Z,100.00
2023-04-17T03:24:53.165Z,100.00
2023-04-17T03:27:57.950Z,100.00
2023-04-17T03:31:07.542Z,100.00
2023-04-17T03:34:10.285Z,100.00
2023-04-17T03:37:12.632Z,100.00
2023-04-17T03:40:14.172Z,100.00
2023-04-17T03:43:20.175Z,100.00
2023-04-17T03:46:21.862Z,100.00
2023-04-17T03:49:23.871Z,100.00
2023-04-17T03:52:27.193Z,100.00
2023-04-17T03:55:32.648Z,100.00
2023-04-17T03:58:36.127Z,100.00
2023-04-17T04:01:39.149Z,100.00
2023-04-17T04:04:50.793Z,100.00
2023-04-17T04:07:52.530Z,100.00
2023-04-17T04:11:09.586Z,100.00
2023-04-17T04:14:15.385Z,100.00
2023-04-17T04:17:21.666Z,100.00
2023-04-17T04:20:23.655Z,100.00
2023-04-17T04:23:31.103Z,100.00
2023-04-17T04:26:33.366Z,100.00
2023-04-17T04:29:37.945Z,100.00
2023-04-17T04:32:45.747Z,100.00
2023-04-17T04:35:48.669Z,100.00
2023-04-17T04:38:50.666Z,100.00
2023-04-17T04:42:06.189Z,100.00
2023-04-17T04:45:20.689Z,100.00
2023-04-17T04:48:22.404Z,100.00
2023-04-17T04:51:24.165Z,100.00
2023-04-17T04:54:26.020Z,100.00
2023-04-17T04:57:31.970Z,100.00
2023-04-17T05:00:37.933Z,100.00
2023-04-17T05:03:40.896Z,100.00
2023-04-17T05:06:44.853Z,100.00
2023-04-17T05:09:47.481Z,100.00
2023-04-17T05:12:51.739Z,100.00
2023-04-17T05:15:55.029Z,100.00
2023-04-17T05:19:01.325Z,100.00
2023-04-17T05:22:29.795Z,100.00
2023-04-17T05:25:43.151Z,100.00
2023-04-17T05:28:45.405Z,100.00
2023-04-17T05:31:52.928Z,100.00
2023-04-17T05:35:17.586Z,100.00
2023-04-17T05:38:19.378Z,100.00
2023-04-17T05:41:21.580Z,100.00
2023-04-17T05:44:23.096Z,100.00
2023-04-17T05:47:26.038Z,100.00
2023-04-17T05:50:28.297Z,100.00
2023-04-17T05:53:31.179Z,100.00
2023-04-17T05:56:34.106Z,100.00
2023-04-17T05:59:36.680Z,100.00
2023-04-17T06:02:41.227Z,100.00
2023-04-17T06:05:43.079Z,100.00
2023-04-17T06:08:44.999Z,100.00
2023-04-17T06:11:46.858Z,100.00
2023-04-17T06:14:48.485Z,100.00
2023-04-17T06:17:55.045Z,100.00
2023-04-17T06:20:56.766Z,100.00
2023-04-17T06:23:58.284Z,100.00
2023-04-17T06:26:59.902Z,100.00
2023-04-17T06:30:01.821Z,100.00
2023-04-17T06:33:08.419Z,100.00
2023-04-17T06:36:13.425Z,100.00
2023-04-17T06:39:23.156Z,100.00
2023-04-17T06:42:25.054Z,100.00
2023-04-17T06:45:34.328Z,100.00
2023-04-17T06:48:37.180Z,100.00
2023-04-17T06:51:38.801Z,100.00
2023-04-17T06:54:40.360Z,100.00
2023-04-17T06:57:42.227Z,100.00
2023-04-17T07:00:44.008Z,100.00
2023-04-17T07:03:47.392Z,100.00
2023-04-17T07:06:49.297Z,100.00
2023-04-17T07:09:51.533Z,100.00
2023-04-17T07:12:53.028Z,100.00
2023-04-17T07:15:55.233Z,100.00
2023-04-17T07:18:58.420Z,100.00
2023-04-17T07:22:00.796Z,100.00
2023-04-17T07:25:02.321Z,100.00
2023-04-17T07:28:04.622Z,100.00
2023-04-17T07:31:08.800Z,100.00
2023-04-17T07:34:11.736Z,100.00
2023-04-17T07:37:15.318Z,100.00
2023-04-17T07:40:17.384Z,100.00
2023-04-17T07:43:18.872Z,100.00
2023-04-17T07:46:20.485Z,100.00
2023-04-17T07:49:23.600Z,100.00
2023-04-17T07:52:25.335Z,100.00
2023-04-17T07:55:26.847Z,100.00
2023-04-17T07:58:28.351Z,100.00
2023-04-17T08:01:29.951Z,100.00
2023-04-17T08:04:33.270Z,100.00
2023-04-17T08:07:35.436Z,100.00
2023-04-17T08:10:37.039Z,100.00
2023-04-17T08:13:38.548Z,100.00
2023-04-17T08:16:40.393Z,100.00
2023-04-17T08:19:43.297Z,100.00
2023-04-17T08:22:46.053Z,100.00
2023-04-17T08:25:47.770Z,100.00
2023-04-17T08:28:49.571Z,100.00
2023-04-17T08:31:57.429Z,98.59
2023-04-17T08:35:11.527Z,99.28
2023-04-17T08:38:14.879Z,95.46
2023-04-17T08:41:23.206Z,96.17
2023-04-17T08:44:25.182Z,95.75
2023-04-17T08:47:27.192Z,93.30
2023-04-17T08:50:30.870Z,93.61
2023-04-17T08:53:32.490Z,92.72
2023-04-17T08:56:33.964Z,92.81
2023-04-17T08:59:35.655Z,90.79
2023-04-17T09:02:51.723Z,89.39
2023-04-17T09:05:57.172Z,89.54
2023-04-17T09:09:00.253Z,89.82
2023-04-17T09:12:08.494Z,88.20
2023-04-17T09:15:16.781Z,87.80
2023-04-17T09:18:23.306Z,88.15
2023-04-17T09:21:27.945Z,85.13
2023-04-17T09:24:33.053Z,85.82
2023-04-17T09:27:34.763Z,83.44
2023-04-17T09:30:37.158Z,83.82
2023-04-17T09:33:55.519Z,81.37
2023-04-17T09:36:58.861Z,80.96
2023-04-17T09:40:01.263Z,77.83
2023-04-17T09:43:04.057Z,77.85
2023-04-17T09:46:06.470Z,78.55
2023-04-17T09:49:09.941Z,80.81
2023-04-17T09:52:13.495Z,78.83
2023-04-17T09:55:16.385Z,78.77
2023-04-17T09:58:18.111Z,75.47
2023-04-17T10:01:20.129Z,74.54
2023-04-17T10:04:23.325Z,75.36
2023-04-17T10:07:29.996Z,77.45
2023-04-17T10:10:33.863Z,72.30
2023-04-17T10:13:38.713Z,72.05
2023-04-17T10:16:42.736Z,71.89
2023-04-17T10:19:44.586Z,69.11
2023-04-17T10:22:54.201Z,70.00
2023-04-17T10:26:14.764Z,68.15
2023-04-17T10:29:16.459Z,68.47
2023-04-17T10:32:18.318Z,67.39
2023-04-17T10:35:33.967Z,65.45
2023-04-17T10:38:36.992Z,68.72
2023-04-17T10:42:01.591Z,64.11
2023-04-17T10:45:17.706Z,63.78
2023-04-17T10:48:26.656Z,64.16
2023-04-17T10:51:41.772Z,64.84
2023-04-17T10:54:58.290Z,66.35
2023-04-17T10:58:03.055Z,64.63
2023-04-17T11:01:09.362Z,66.51
2023-04-17T11:04:18.397Z,64.06
2023-04-17T11:07:20.166Z,63.53
2023-04-17T11:10:23.039Z,65.54
2023-04-17T11:13:31.467Z,65.80
2023-04-17T11:16:33.794Z,64.86
2023-04-17T11:19:35.738Z,65.20
2023-04-17T11:22:37.355Z,63.97
2023-04-17T11:25:40.168Z,64.87
2023-04-17T11:28:43.060Z,66.66
2023-04-17T11:31:45.165Z,65.61
2023-04-17T11:34:47.115Z,66.20
2023-04-17T11:38:08.255Z,66.42
2023-04-17T11:41:10.510Z,67.03
2023-04-17T11:44:13.717Z,66.06
2023-04-17T11:47:15.270Z,66.24
2023-04-17T11:50:17.004Z,66.01
2023-04-17T11:53:18.519Z,65.71
2023-04-17T11:56:21.187Z,66.21
2023-04-17T11:59:31.010Z,66.05
2023-04-17T12:02:33.759Z,62.93
2023-04-17T12:05:35.933Z,64.40
2023-04-17T12:08:45.138Z,62.54
2023-04-17T12:11:46.990Z,62.16
2023-04-17T12:14:49.852Z,63.18
2023-04-17T12:17:51.537Z,62.88
2023-04-17T12:20:53.124Z,61.96
2023-04-17T12:23:54.786Z,63.02
2023-04-17T12:26:57.200Z,64.26
2023-04-17T12:30:00.451Z,62.97
2023-04-17T12:33:02.226Z,63.56
2023-04-17T12:36:05.249Z,64.19
2023-04-17T12:39:06.857Z,63.10
2023-04-17T12:42:08.736Z,63.20
2023-04-17T12:45:11.772Z,63.44
2023-04-17T12:48:15.236Z,63.39
2023-04-17T12:51:16.885Z,62.95
2023-04-17T12:54:18.567Z,63.85
2023-04-17T12:57:20.865Z,64.49
2023-04-17T13:00:23.980Z,64.71
2023-04-17T13:03:25.923Z,63.43
2023-04-17T13:06:28.251Z,63.28
2023-04-17T13:09:29.769Z,63.57
2023-04-17T13:12:31.575Z,63.56
2023-04-17T13:15:34.994Z,64.60
2023-04-17T13:18:37.582Z,64.70
2023-04-17T13:21:39.245Z,63.43
2023-04-17T13:24:41.920Z,64.17
2023-04-17T13:27:43.735Z,63.87
2023-04-17T13:30:46.753Z,64.50
2023-04-17T13:33:49.056Z,63.70
2023-04-17T13:36:50.918Z,63.85
2023-04-17T13:39:52.773Z,62.88
2023-04-17T13:42:55.227Z,62.55
2023-04-17T13:45:58.323Z,62.46
2023-04-17T13:49:00.423Z,62.68
2023-04-17T13:52:05.372Z,62.13
2023-04-17T13:55:11.894Z,62.42
2023-04-17T13:58:13.525Z,63.27
2023-04-17T14:01:17.490Z,61.70
2023-04-17T14:04:19.281Z,60.92
2023-04-17T14:07:21.346Z,61.02
2023-04-17T14:10:23.329Z,61.70
2023-04-17T14:13:25.211Z,61.88
2023-04-17T14:16:28.467Z,62.20
2023-04-17T14:19:30.068Z,61.49
2023-04-17T14:22:31.619Z,62.85
2023-04-17T14:25:33.604Z,61.58
2023-04-17T14:28:35.143Z,59.69
2023-04-17T14:31:38.247Z,60.13
2023-04-17T14:34:40.071Z,61.05
2023-04-17T14:37:42.595Z,62.02
2023-04-17T14:40:44.182Z,60.80
2023-04-17T14:43:45.769Z,60.68
2023-04-17T14:46:48.969Z,61.63
2023-04-17T14:49:51.099Z,61.88
2023-04-17T14:52:52.847Z,61.83
2023-04-17T14:55:54.652Z,62.14
2023-04-17T14:58:56.188Z,62.81
2023-04-17T15:01:59.401Z,62.88
2023-04-17T15:05:01.017Z,63.50
2023-04-17T15:08:02.612Z,64.67
2023-04-17T15:11:04.244Z,63.53
2023-04-17T15:14:06.235Z,63.11
2023-04-17T15:17:09.637Z,62.07
2023-04-17T15:20:11.561Z,61.75
2023-04-17T15:23:13.172Z,61.79
2023-04-17T15:26:14.956Z,62.44
2023-04-17T15:29:16.522Z,62.30
2023-04-17T15:32:19.725Z,62.32
2023-04-17T15:35:21.610Z,62.19
2023-04-17T15:38:23.596Z,62.70
2023-04-17T15:41:25.416Z,62.97
2023-04-17T15:44:27.115Z,63.25
2023-04-17T15:47:30.139Z,63.47
2023-04-17T15:50:31.784Z,63.54
2023-04-17T15:53:33.344Z,64.16
2023-04-17T15:56:34.963Z,65.10
2023-04-17T15:59:36.598Z,63.58
2023-04-17T16:02:39.737Z,62.97
2023-04-17T16:05:41.739Z,64.09
2023-04-17T16:08:43.399Z,63.97
2023-04-17T16:11:45.098Z,63.57
2023-04-17T16:14:47.444Z,63.96
2023-04-17T16:17:50.552Z,64.16
2023-04-17T16:20:52.222Z,64.81
2023-04-17T16:23:53.975Z,65.29
2023-04-17T16:26:57.202Z,65.04
2023-04-17T16:29:59.045Z,64.93
2023-04-17T16:33:02.720Z,64.73
2023-04-17T16:36:04.618Z,64.75
2023-04-17T16:39:08.612Z,64.78
2023-04-17T16:42:10.560Z,64.12
2023-04-17T16:45:12.394Z,63.98
2023-04-17T16:48:16.198Z,63.53
2023-04-17T16:51:20.337Z,64.10
2023-04-17T16:54:25.851Z,63.62
2023-04-17T16:57:27.600Z,64.26
2023-04-17T17:00:32.607Z,64.33
2023-04-17T17:03:37.777Z,64.45
2023-04-17T17:06:39.529Z,65.05
2023-04-17T17:09:41.788Z,64.92
2023-04-17T17:12:43.864Z,64.97
2023-04-17T17:15:45.373Z,64.68
2023-04-17T17:18:49.563Z,64.90
2023-04-17T17:21:51.120Z,63.98
2023-04-17T17:24:53.019Z,63.53
2023-04-17T17:27:54.643Z,63.68
2023-04-17T17:31:00.605Z,63.76
2023-04-17T17:34:16.561Z,63.68
2023-04-17T17:37:25.692Z,63.13
2023-04-17T17:40:27.699Z,63.38
2023-04-17T17:43:30.160Z,63.78
2023-04-17T17:46:34.219Z,61.60
2023-04-17T17:49:38.419Z,60.65
2023-04-17T17:52:39.974Z,60.34
2023-04-17T17:55:41.712Z,59.72
2023-04-17T17:58:43.520Z,59.54
2023-04-17T18:01:45.509Z,59.20
2023-04-17T18:04:48.733Z,59.54
2023-04-17T18:07:50.618Z,59.45
2023-04-17T18:10:52.533Z,59.27
2023-04-17T18:13:54.146Z,59.40
2023-04-17T18:16:55.819Z,59.75
2023-04-17T18:19:58.797Z,59.88
2023-04-17T18:23:00.741Z,59.12
2023-04-17T18:26:03.070Z,59.37
2023-04-17T18:29:04.658Z,59.41
2023-04-17T18:32:06.420Z,59.52
2023-04-17T18:35:09.965Z,59.30
2023-04-17T18:38:12.029Z,59.13
2023-04-17T18:41:13.767Z,59.63
2023-04-17T18:44:16.294Z,59.54
2023-04-17T18:47:18.150Z,58.74
2023-04-17T18:50:21.473Z,58.96
2023-04-17T18:53:23.066Z,59.94
2023-04-17T18:56:24.879Z,59.46
2023-04-17T18:59:28.069Z,59.17
2023-04-17T19:02:30.007Z,59.85
2023-04-17T19:05:32.943Z,61.83
2023-04-17T19:08:34.925Z,62.89
2023-04-17T19:11:36.608Z,64.41
2023-04-17T19:14:38.205Z,64.91
2023-04-17T19:17:40.086Z,65.70
2023-04-17T19:20:43.052Z,67.27
2023-04-17T19:23:45.060Z,70.55
2023-04-17T19:26:48.105Z,71.92
2023-04-17T19:29:49.578Z,72.70
2023-04-17T19:32:51.201Z,76.40
2023-04-17T19:35:54.303Z,78.00
2023-04-17T19:38:59.141Z,78.60
2023-04-17T19:42:01.332Z,79.29
2023-04-17T19:45:02.866Z,79.88
2023-04-17T19:48:04.876Z,81.14
2023-04-17T19:51:07.866Z,80.76
2023-04-17T19:54:11.921Z,82.77
2023-04-17T19:57:13.653Z,82.64
2023-04-17T20:00:15.736Z,83.85
2023-04-17T20:03:18.456Z,84.11
2023-04-17T20:06:21.604Z,83.97
2023-04-17T20:09:23.371Z,85.97
2023-04-17T20:12:25.537Z,84.56
2023-04-17T20:15:27.445Z,85.97
2023-04-17T20:18:29.457Z,86.16
2023-04-17T20:21:32.604Z,85.85
2023-04-17T20:24:34.593Z,86.54
2023-04-17T20:27:36.157Z,87.02
2023-04-17T20:30:37.721Z,87.22
2023-04-17T20:33:39.373Z,86.96
2023-04-17T20:36:42.672Z,87.79
2023-04-17T20:39:44.409Z,87.11
2023-04-17T20:42:46.920Z,86.54
2023-04-17T20:45:49.373Z,86.39
2023-04-17T20:48:51.025Z,87.45
2023-04-17T20:51:54.152Z,87.00
2023-04-17T20:54:55.968Z,87.61
2023-04-17T20:57:57.418Z,87.55
2023-04-17T21:01:01.715Z,87.15
2023-04-17T21:04:03.516Z,87.89
2023-04-17T21:07:06.471Z,88.10
2023-04-17T21:10:09.247Z,87.02
2023-04-17T21:13:10.953Z,87.93
2023-04-17T21:16:13.961Z,88.29
2023-04-17T21:19:15.639Z,88.31
2023-04-17T21:22:18.748Z,88.24
2023-04-17T21:25:20.251Z,88.15
2023-04-17T21:28:22.058Z,88.25
2023-04-17T21:31:24.453Z,88.83
2023-04-17T21:34:26.188Z,89.51
2023-04-17T21:37:29.201Z,89.67
2023-04-17T21:40:33.458Z,89.57
2023-04-17T21:43:36.030Z,89.94
2023-04-17T21:46:37.812Z,90.25
2023-04-17T21:49:39.830Z,89.73
2023-04-17T21:52:42.718Z,89.70
2023-04-17T21:55:44.914Z,90.43
2023-04-17T21:58:46.461Z,89.21
2023-04-17T22:01:48.258Z,90.37
2023-04-17T22:04:50.003Z,90.02
2023-04-17T22:07:55.292Z,90.21
2023-04-17T22:10:57.119Z,90.35
2023-04-17T22:13:58.664Z,90.24
2023-04-17T22:17:00.432Z,90.80
2023-04-17T22:20:02.173Z,90.28
2023-04-17T22:23:05.178Z,90.17
2023-04-17T22:26:06.734Z,90.75
2023-04-17T22:29:08.288Z,90.57
2023-04-17T22:32:09.866Z,90.16
2023-04-17T22:35:11.771Z,90.94
2023-04-17T22:38:14.678Z,90.68
2023-04-17T22:41:16.187Z,90.54
2023-04-17T22:44:17.709Z,91.30
2023-04-17T22:47:19.396Z,91.41
2023-04-17T22:50:21.821Z,91.40
2023-04-17T22:53:24.950Z,91.78
2023-04-17T22:56:26.666Z,91.92
2023-04-17T22:59:28.441Z,91.93
2023-04-17T23:02:30.020Z,91.95
2023-04-17T23:05:32.065Z,91.87
2023-04-17T23:08:34.893Z,92.69
2023-04-17T23:11:36.501Z,91.98
2023-04-17T23:14:38.096Z,92.64
2023-04-17T23:17:39.774Z,93.13
2023-04-17T23:20:41.896Z,93.37
2023-04-17T23:23:48.168Z,93.28
2023-04-17T23:26:50.355Z,93.47
2023-04-17T23:29:51.951Z,93.95
2023-04-17T23:32:54.434Z,94.12
2023-04-17T23:35:55.983Z,94.46
2023-04-17T23:39:00.321Z,94.79
2023-04-17T23:42:07.000Z,94.70
2023-04-17T23:45:09.001Z,94.83
2023-04-17T23:48:10.765Z,95.04
2023-04-17T23:51:12.450Z,95.34
2023-04-17T23:54:15.748Z,95.17
2023-04-17T23:57:17.585Z,95.40
